sensor_id;sensor_type;location;lat;lon;timestamp;P1;durP1;ratioP1;P2;durP2;ratioP2
47866;SDS011;33628;50.806;11.586;2023-08-31T00:01:17;2.33;;;1.63;;
47866;SDS011;33628;50.806;11.586;2023-08-31T00:03:44;3.25;;;1.90;;
47866;SDS011;33628;50.806;11.586;2023-08-31T00:06:10;3.55;;;1.92;;
47866;SDS011;33628;50.806;11.586;2023-08-31T00:08:37;2.75;;;2.13;;
47866;SDS011;33628;50.806;11.586;2023-08-31T00:11:04;2.67;;;1.83;;
47866;SDS011;33628;50.806;11.586;2023-08-31T00:13:34;2.55;;;2.20;;
47866;SDS011;33628;50.806;11.586;2023-08-31T00:16:02;3.30;;;1.92;;
47866;SDS011;33628;50.806;11.586;2023-08-31T00:18:30;5.72;;;2.15;;
47866;SDS011;33628;50.806;11.586;2023-08-31T00:20:58;2.70;;;1.90;;
47866;SDS011;33628;50.806;11.586;2023-08-31T00:23:25;4.38;;;2.05;;
47866;SDS011;33628;50.806;11.586;2023-08-31T00:25:52;4.13;;;1.42;;
47866;SDS011;33628;50.806;11.586;2023-08-31T00:28:19;4.00;;;1.90;;
47866;SDS011;33628;50.806;11.586;2023-08-31T00:30:46;3.67;;;1.85;;
47866;SDS011;33628;50.806;11.586;2023-08-31T00:33:16;4.60;;;1.83;;
47866;SDS011;33628;50.806;11.586;2023-08-31T00:35:44;2.92;;;2.05;;
47866;SDS011;33628;50.806;11.586;2023-08-31T00:38:12;3.20;;;1.70;;
47866;SDS011;33628;50.806;11.586;2023-08-31T00:40:39;2.70;;;1.80;;
47866;SDS011;33628;50.806;11.586;2023-08-31T00:43:13;2.42;;;1.88;;
47866;SDS011;33628;50.806;11.586;2023-08-31T00:45:43;3.15;;;1.85;;
47866;SDS011;33628;50.806;11.586;2023-08-31T00:48:11;3.25;;;1.70;;
47866;SDS011;33628;50.806;11.586;2023-08-31T00:50:39;3.20;;;2.15;;
47866;SDS011;33628;50.806;11.586;2023-08-31T00:53:06;3.22;;;1.67;;
47866;SDS011;33628;50.806;11.586;2023-08-31T00:55:32;5.30;;;1.90;;
47866;SDS011;33628;50.806;11.586;2023-08-31T00:57:59;6.70;;;2.38;;
47866;SDS011;33628;50.806;11.586;2023-08-31T01:00:28;2.38;;;2.08;;
47866;SDS011;33628;50.806;11.586;2023-08-31T01:02:59;9.35;;;2.38;;
47866;SDS011;33628;50.806;11.586;2023-08-31T01:05:33;5.38;;;2.30;;
47866;SDS011;33628;50.806;11.586;2023-08-31T01:08:07;2.70;;;1.90;;
47866;SDS011;33628;50.806;11.586;2023-08-31T01:10:43;4.55;;;2.10;;
47866;SDS011;33628;50.806;11.586;2023-08-31T01:13:12;4.68;;;1.98;;
47866;SDS011;33628;50.806;11.586;2023-08-31T01:15:41;6.05;;;2.03;;
47866;SDS011;33628;50.806;11.586;2023-08-31T01:18:13;3.53;;;2.35;;
47866;SDS011;33628;50.806;11.586;2023-08-31T01:20:45;3.58;;;2.22;;
47866;SDS011;33628;50.806;11.586;2023-08-31T01:23:19;2.00;;;1.50;;
47866;SDS011;33628;50.806;11.586;2023-08-31T01:25:48;3.78;;;2.08;;
47866;SDS011;33628;50.806;11.586;2023-08-31T01:28:14;3.75;;;2.17;;
47866;SDS011;33628;50.806;11.586;2023-08-31T01:30:41;6.97;;;2.00;;
47866;SDS011;33628;50.806;11.586;2023-08-31T01:33:07;4.50;;;2.00;;
47866;SDS011;33628;50.806;11.586;2023-08-31T01:35:36;3.22;;;2.10;;
47866;SDS011;33628;50.806;11.586;2023-08-31T01:38:07;3.53;;;2.10;;
47866;SDS011;33628;50.806;11.586;2023-08-31T01:40:42;2.83;;;2.28;;
47866;SDS011;33628;50.806;11.586;2023-08-31T01:43:12;2.33;;;2.10;;
47866;SDS011;33628;50.806;11.586;2023-08-31T01:45:40;5.30;;;2.30;;
47866;SDS011;33628;50.806;11.586;2023-08-31T01:48:07;3.88;;;2.03;;
47866;SDS011;33628;50.806;11.586;2023-08-31T01:50:36;4.97;;;2.10;;
47866;SDS011;33628;50.806;11.586;2023-08-31T01:53:02;4.03;;;2.85;;
47866;SDS011;33628;50.806;11.586;2023-08-31T01:55:30;3.10;;;2.20;;
47866;SDS011;33628;50.806;11.586;2023-08-31T01:57:56;2.72;;;2.28;;
47866;SDS011;33628;50.806;11.586;2023-08-31T02:00:27;5.40;;;2.50;;
47866;SDS011;33628;50.806;11.586;2023-08-31T02:02:55;3.88;;;2.67;;
47866;SDS011;33628;50.806;11.586;2023-08-31T02:05:22;4.97;;;2.28;;
47866;SDS011;33628;50.806;11.586;2023-08-31T02:07:49;3.40;;;2.15;;
47866;SDS011;33628;50.806;11.586;2023-08-31T02:10:15;3.50;;;2.35;;
47866;SDS011;33628;50.806;11.586;2023-08-31T02:12:43;6.15;;;2.17;;
47866;SDS011;33628;50.806;11.586;2023-08-31T02:15:09;3.13;;;2.50;;
47866;SDS011;33628;50.806;11.586;2023-08-31T02:17:38;3.85;;;2.25;;
47866;SDS011;33628;50.806;11.586;2023-08-31T02:20:05;2.67;;;2.20;;
47866;SDS011;33628;50.806;11.586;2023-08-31T02:22:38;4.10;;;2.38;;
47866;SDS011;33628;50.806;11.586;2023-08-31T02:25:06;5.22;;;1.90;;
47866;SDS011;33628;50.806;11.586;2023-08-31T02:27:33;3.05;;;2.10;;
47866;SDS011;33628;50.806;11.586;2023-08-31T02:29:59;3.83;;;1.95;;
47866;SDS011;33628;50.806;11.586;2023-08-31T02:32:26;3.38;;;2.10;;
47866;SDS011;33628;50.806;11.586;2023-08-31T02:34:54;7.78;;;2.67;;
47866;SDS011;33628;50.806;11.586;2023-08-31T02:37:21;3.85;;;2.33;;
47866;SDS011;33628;50.806;11.586;2023-08-31T02:39:47;3.95;;;2.35;;
47866;SDS011;33628;50.806;11.586;2023-08-31T02:42:14;3.78;;;2.40;;
47866;SDS011;33628;50.806;11.586;2023-08-31T02:44:41;5.28;;;2.05;;
47866;SDS011;33628;50.806;11.586;2023-08-31T02:47:07;4.38;;;2.65;;
47866;SDS011;33628;50.806;11.586;2023-08-31T02:49:34;2.97;;;2.33;;
47866;SDS011;33628;50.806;11.586;2023-08-31T02:52:02;3.60;;;3.00;;
47866;SDS011;33628;50.806;11.586;2023-08-31T02:54:29;3.88;;;2.20;;
47866;SDS011;33628;50.806;11.586;2023-08-31T02:56:56;2.40;;;2.20;;
47866;SDS011;33628;50.806;11.586;2023-08-31T02:59:22;3.08;;;2.17;;
47866;SDS011;33628;50.806;11.586;2023-08-31T03:01:49;2.95;;;2.30;;
47866;SDS011;33628;50.806;11.586;2023-08-31T03:04:16;2.58;;;1.95;;
47866;SDS011;33628;50.806;11.586;2023-08-31T03:06:43;3.38;;;2.00;;
47866;SDS011;33628;50.806;11.586;2023-08-31T03:09:12;5.00;;;2.95;;
47866;SDS011;33628;50.806;11.586;2023-08-31T03:11:39;3.22;;;2.60;;
47866;SDS011;33628;50.806;11.586;2023-08-31T03:14:06;4.30;;;2.85;;
47866;SDS011;33628;50.806;11.586;2023-08-31T03:16:35;4.38;;;2.67;;
47866;SDS011;33628;50.806;11.586;2023-08-31T03:19:03;4.88;;;2.55;;
47866;SDS011;33628;50.806;11.586;2023-08-31T03:21:29;5.18;;;2.30;;
47866;SDS011;33628;50.806;11.586;2023-08-31T03:23:56;4.85;;;2.33;;
47866;SDS011;33628;50.806;11.586;2023-08-31T03:26:24;2.47;;;2.28;;
47866;SDS011;33628;50.806;11.586;2023-08-31T03:28:51;5.68;;;2.28;;
47866;SDS011;33628;50.806;11.586;2023-08-31T03:31:17;4.05;;;2.20;;
47866;SDS011;33628;50.806;11.586;2023-08-31T03:33:44;3.63;;;2.40;;
47866;SDS011;33628;50.806;11.586;2023-08-31T03:36:11;5.05;;;2.20;;
47866;SDS011;33628;50.806;11.586;2023-08-31T03:38:38;3.83;;;3.10;;
47866;SDS011;33628;50.806;11.586;2023-08-31T03:41:04;3.47;;;2.78;;
47866;SDS011;33628;50.806;11.586;2023-08-31T03:43:33;3.78;;;2.88;;
47866;SDS011;33628;50.806;11.586;2023-08-31T03:46:00;7.53;;;3.40;;
47866;SDS011;33628;50.806;11.586;2023-08-31T03:48:26;3.58;;;3.20;;
47866;SDS011;33628;50.806;11.586;2023-08-31T03:50:53;5.70;;;3.50;;
47866;SDS011;33628;50.806;11.586;2023-08-31T03:53:22;3.40;;;2.83;;
47866;SDS011;33628;50.806;11.586;2023-08-31T03:55:52;3.75;;;2.67;;
47866;SDS011;33628;50.806;11.586;2023-08-31T03:58:18;5.28;;;3.53;;
47866;SDS011;33628;50.806;11.586;2023-08-31T04:00:50;4.75;;;3.45;;
47866;SDS011;33628;50.806;11.586;2023-08-31T04:03:18;6.90;;;3.20;;
47866;SDS011;33628;50.806;11.586;2023-08-31T04:05:46;3.35;;;2.20;;
47866;SDS011;33628;50.806;11.586;2023-08-31T04:08:13;2.88;;;2.30;;
47866;SDS011;33628;50.806;11.586;2023-08-31T04:10:39;3.83;;;2.03;;
47866;SDS011;33628;50.806;11.586;2023-08-31T04:13:06;5.78;;;2.67;;
47866;SDS011;33628;50.806;11.586;2023-08-31T04:15:32;3.92;;;2.33;;
47866;SDS011;33628;50.806;11.586;2023-08-31T04:18:01;3.97;;;2.70;;
47866;SDS011;33628;50.806;11.586;2023-08-31T04:20:28;6.60;;;2.50;;
47866;SDS011;33628;50.806;11.586;2023-08-31T04:22:55;3.13;;;2.65;;
47866;SDS011;33628;50.806;11.586;2023-08-31T04:25:21;5.97;;;2.30;;
47866;SDS011;33628;50.806;11.586;2023-08-31T04:27:48;4.47;;;2.60;;
47866;SDS011;33628;50.806;11.586;2023-08-31T04:30:15;8.05;;;2.95;;
47866;SDS011;33628;50.806;11.586;2023-08-31T04:32:41;5.35;;;3.00;;
47866;SDS011;33628;50.806;11.586;2023-08-31T04:35:10;3.80;;;2.80;;
47866;SDS011;33628;50.806;11.586;2023-08-31T04:37:36;4.40;;;3.13;;
47866;SDS011;33628;50.806;11.586;2023-08-31T04:40:03;5.43;;;3.55;;
47866;SDS011;33628;50.806;11.586;2023-08-31T04:42:31;5.93;;;3.38;;
47866;SDS011;33628;50.806;11.586;2023-08-31T04:44:58;3.65;;;2.97;;
47866;SDS011;33628;50.806;11.586;2023-08-31T04:47:24;4.40;;;3.33;;
47866;SDS011;33628;50.806;11.586;2023-08-31T04:49:51;5.05;;;2.95;;
47866;SDS011;33628;50.806;11.586;2023-08-31T04:52:19;4.75;;;3.28;;
47866;SDS011;33628;50.806;11.586;2023-08-31T04:54:45;4.68;;;3.35;;
47866;SDS011;33628;50.806;11.586;2023-08-31T04:57:12;5.75;;;3.33;;
47866;SDS011;33628;50.806;11.586;2023-08-31T04:59:40;8.00;;;3.15;;
47866;SDS011;33628;50.806;11.586;2023-08-31T05:02:07;4.25;;;3.13;;
47866;SDS011;33628;50.806;11.586;2023-08-31T05:04:34;4.22;;;2.90;;
47866;SDS011;33628;50.806;11.586;2023-08-31T05:07:00;8.70;;;3.65;;
47866;SDS011;33628;50.806;11.586;2023-08-31T05:09:28;4.40;;;3.63;;
47866;SDS011;33628;50.806;11.586;2023-08-31T05:11:58;9.25;;;3.33;;
47866;SDS011;33628;50.806;11.586;2023-08-31T05:14:25;5.97;;;3.75;;
47866;SDS011;33628;50.806;11.586;2023-08-31T05:16:51;8.35;;;3.80;;
47866;SDS011;33628;50.806;11.586;2023-08-31T05:19:18;6.00;;;3.40;;
47866;SDS011;33628;50.806;11.586;2023-08-31T05:21:45;6.35;;;3.30;;
47866;SDS011;33628;50.806;11.586;2023-08-31T05:24:11;6.53;;;3.63;;
47866;SDS011;33628;50.806;11.586;2023-08-31T05:26:39;5.88;;;3.47;;
47866;SDS011;33628;50.806;11.586;2023-08-31T05:29:06;4.82;;;3.60;;
47866;SDS011;33628;50.806;11.586;2023-08-31T05:31:33;6.50;;;3.95;;
47866;SDS011;33628;50.806;11.586;2023-08-31T05:33:59;5.50;;;3.53;;
47866;SDS011;33628;50.806;11.586;2023-08-31T05:36:26;6.00;;;3.60;;
47866;SDS011;33628;50.806;11.586;2023-08-31T05:38:52;6.65;;;4.30;;
47866;SDS011;33628;50.806;11.586;2023-08-31T05:41:19;6.03;;;3.45;;
47866;SDS011;33628;50.806;11.586;2023-08-31T05:43:48;5.57;;;3.95;;
47866;SDS011;33628;50.806;11.586;2023-08-31T05:46:14;4.07;;;2.92;;
47866;SDS011;33628;50.806;11.586;2023-08-31T05:48:41;6.25;;;4.03;;
47866;SDS011;33628;50.806;11.586;2023-08-31T05:51:08;6.30;;;3.95;;
47866;SDS011;33628;50.806;11.586;2023-08-31T05:53:35;4.80;;;3.70;;
47866;SDS011;33628;50.806;11.586;2023-08-31T05:56:01;6.03;;;3.35;;
47866;SDS011;33628;50.806;11.586;2023-08-31T05:58:33;6.93;;;3.40;;
47866;SDS011;33628;50.806;11.586;2023-08-31T06:01:01;9.38;;;4.55;;
47866;SDS011;33628;50.806;11.586;2023-08-31T06:03:28;5.68;;;4.18;;
47866;SDS011;33628;50.806;11.586;2023-08-31T06:05:56;4.38;;;3.83;;
47866;SDS011;33628;50.806;11.586;2023-08-31T06:08:22;4.28;;;3.88;;
47866;SDS011;33628;50.806;11.586;2023-08-31T06:10:49;5.80;;;3.95;;
47866;SDS011;33628;50.806;11.586;2023-08-31T06:13:16;6.10;;;3.55;;
47866;SDS011;33628;50.806;11.586;2023-08-31T06:15:43;4.88;;;4.00;;
47866;SDS011;33628;50.806;11.586;2023-08-31T06:18:12;6.53;;;3.65;;
47866;SDS011;33628;50.806;11.586;2023-08-31T06:20:38;4.95;;;3.97;;
47866;SDS011;33628;50.806;11.586;2023-08-31T06:23:05;4.75;;;3.13;;
47866;SDS011;33628;50.806;11.586;2023-08-31T06:25:32;5.18;;;3.08;;
47866;SDS011;33628;50.806;11.586;2023-08-31T06:27:58;3.80;;;3.40;;
47866;SDS011;33628;50.806;11.586;2023-08-31T06:30:25;2.95;;;2.63;;
47866;SDS011;33628;50.806;11.586;2023-08-31T06:32:52;6.93;;;3.15;;
47866;SDS011;33628;50.806;11.586;2023-08-31T06:35:20;3.83;;;3.42;;
47866;SDS011;33628;50.806;11.586;2023-08-31T06:37:47;5.57;;;3.35;;
47866;SDS011;33628;50.806;11.586;2023-08-31T06:40:16;6.75;;;3.70;;
47866;SDS011;33628;50.806;11.586;2023-08-31T06:42:43;5.68;;;3.45;;
47866;SDS011;33628;50.806;11.586;2023-08-31T06:45:10;6.15;;;3.30;;
47866;SDS011;33628;50.806;11.586;2023-08-31T06:47:37;5.93;;;3.47;;
47866;SDS011;33628;50.806;11.586;2023-08-31T06:50:04;6.18;;;3.35;;
47866;SDS011;33628;50.806;11.586;2023-08-31T06:52:32;4.25;;;3.38;;
47866;SDS011;33628;50.806;11.586;2023-08-31T06:54:59;7.20;;;3.63;;
47866;SDS011;33628;50.806;11.586;2023-08-31T06:57:26;4.10;;;3.30;;
47866;SDS011;33628;50.806;11.586;2023-08-31T06:59:53;4.15;;;2.85;;
47866;SDS011;33628;50.806;11.586;2023-08-31T07:02:20;5.18;;;3.03;;
47866;SDS011;33628;50.806;11.586;2023-08-31T07:04:48;5.15;;;3.47;;
47866;SDS011;33628;50.806;11.586;2023-08-31T07:07:15;5.45;;;2.95;;
47866;SDS011;33628;50.806;11.586;2023-08-31T07:09:43;5.45;;;3.03;;
47866;SDS011;33628;50.806;11.586;2023-08-31T07:12:11;5.80;;;3.30;;
47866;SDS011;33628;50.806;11.586;2023-08-31T07:14:38;4.97;;;3.38;;
47866;SDS011;33628;50.806;11.586;2023-08-31T07:17:05;5.20;;;3.03;;
47866;SDS011;33628;50.806;11.586;2023-08-31T07:19:35;3.67;;;2.60;;
47866;SDS011;33628;50.806;11.586;2023-08-31T07:22:02;3.50;;;2.70;;
47866;SDS011;33628;50.806;11.586;2023-08-31T07:24:29;4.72;;;2.90;;
47866;SDS011;33628;50.806;11.586;2023-08-31T07:26:57;3.65;;;2.60;;
47866;SDS011;33628;50.806;11.586;2023-08-31T07:29:24;5.15;;;3.15;;
47866;SDS011;33628;50.806;11.586;2023-08-31T07:31:51;4.45;;;3.08;;
47866;SDS011;33628;50.806;11.586;2023-08-31T07:34:17;4.25;;;2.90;;
47866;SDS011;33628;50.806;11.586;2023-08-31T07:36:44;5.43;;;3.22;;
47866;SDS011;33628;50.806;11.586;2023-08-31T07:39:11;8.38;;;4.70;;
47866;SDS011;33628;50.806;11.586;2023-08-31T07:41:37;5.90;;;3.58;;
47866;SDS011;33628;50.806;11.586;2023-08-31T07:44:05;6.47;;;2.97;;
47866;SDS011;33628;50.806;11.586;2023-08-31T07:46:32;6.00;;;3.15;;
47866;SDS011;33628;50.806;11.586;2023-08-31T07:48:59;5.75;;;3.03;;
47866;SDS011;33628;50.806;11.586;2023-08-31T07:51:25;6.10;;;3.42;;
47866;SDS011;33628;50.806;11.586;2023-08-31T07:53:52;4.50;;;3.20;;
47866;SDS011;33628;50.806;11.586;2023-08-31T07:56:19;6.53;;;3.30;;
47866;SDS011;33628;50.806;11.586;2023-08-31T07:58:45;6.47;;;3.28;;
47866;SDS011;33628;50.806;11.586;2023-08-31T08:01:13;6.88;;;3.38;;
47866;SDS011;33628;50.806;11.586;2023-08-31T08:03:40;5.20;;;3.25;;
47866;SDS011;33628;50.806;11.586;2023-08-31T08:06:07;5.55;;;3.05;;
47866;SDS011;33628;50.806;11.586;2023-08-31T08:08:34;3.70;;;3.00;;
47866;SDS011;33628;50.806;11.586;2023-08-31T08:11:01;5.72;;;3.05;;
47866;SDS011;33628;50.806;11.586;2023-08-31T08:13:28;7.32;;;2.75;;
47866;SDS011;33628;50.806;11.586;2023-08-31T08:15:55;5.65;;;2.83;;
47866;SDS011;33628;50.806;11.586;2023-08-31T08:18:23;5.85;;;3.35;;
47866;SDS011;33628;50.806;11.586;2023-08-31T08:20:50;4.95;;;3.50;;
47866;SDS011;33628;50.806;11.586;2023-08-31T08:23:16;5.93;;;3.47;;
47866;SDS011;33628;50.806;11.586;2023-08-31T08:25:43;8.90;;;4.22;;
47866;SDS011;33628;50.806;11.586;2023-08-31T08:28:09;4.50;;;2.80;;
47866;SDS011;33628;50.806;11.586;2023-08-31T08:30:36;5.28;;;2.70;;
47866;SDS011;33628;50.806;11.586;2023-08-31T08:33:03;5.93;;;3.00;;
47866;SDS011;33628;50.806;11.586;2023-08-31T08:35:32;5.15;;;2.40;;
47866;SDS011;33628;50.806;11.586;2023-08-31T08:37:58;2.78;;;1.95;;
47866;SDS011;33628;50.806;11.586;2023-08-31T08:40:25;5.35;;;2.33;;
47866;SDS011;33628;50.806;11.586;2023-08-31T08:42:52;5.00;;;2.38;;
47866;SDS011;33628;50.806;11.586;2023-08-31T08:45:20;6.60;;;2.22;;
47866;SDS011;33628;50.806;11.586;2023-08-31T08:47:50;2.42;;;2.22;;
47866;SDS011;33628;50.806;11.586;2023-08-31T08:50:17;4.05;;;2.05;;
47866;SDS011;33628;50.806;11.586;2023-08-31T08:52:45;3.47;;;1.83;;
47866;SDS011;33628;50.806;11.586;2023-08-31T08:55:12;3.95;;;2.15;;
47866;SDS011;33628;50.806;11.586;2023-08-31T08:57:40;4.53;;;1.67;;
47866;SDS011;33628;50.806;11.586;2023-08-31T09:00:07;3.60;;;1.40;;
47866;SDS011;33628;50.806;11.586;2023-08-31T09:02:37;3.53;;;1.55;;
47866;SDS011;33628;50.806;11.586;2023-08-31T09:05:03;2.53;;;1.23;;
47866;SDS011;33628;50.806;11.586;2023-08-31T09:07:33;3.55;;;1.30;;
47866;SDS011;33628;50.806;11.586;2023-08-31T09:10:04;2.95;;;1.33;;
47866;SDS011;33628;50.806;11.586;2023-08-31T09:12:32;2.85;;;1.40;;
47866;SDS011;33628;50.806;11.586;2023-08-31T09:15:03;2.92;;;1.45;;
47866;SDS011;33628;50.806;11.586;2023-08-31T09:17:37;1.90;;;1.10;;
47866;SDS011;33628;50.806;11.586;2023-08-31T09:20:05;3.83;;;1.38;;
47866;SDS011;33628;50.806;11.586;2023-08-31T09:22:33;3.80;;;1.25;;
47866;SDS011;33628;50.806;11.586;2023-08-31T09:25:00;2.45;;;0.90;;
47866;SDS011;33628;50.806;11.586;2023-08-31T09:27:28;3.67;;;1.13;;
47866;SDS011;33628;50.806;11.586;2023-08-31T09:29:56;5.13;;;1.20;;
47866;SDS011;33628;50.806;11.586;2023-08-31T09:32:24;2.08;;;1.15;;
47866;SDS011;33628;50.806;11.586;2023-08-31T09:34:51;2.70;;;1.20;;
47866;SDS011;33628;50.806;11.586;2023-08-31T09:37:17;2.78;;;1.10;;
47866;SDS011;33628;50.806;11.586;2023-08-31T09:39:44;4.18;;;1.52;;
47866;SDS011;33628;50.806;11.586;2023-08-31T09:42:11;2.03;;;0.95;;
47866;SDS011;33628;50.806;11.586;2023-08-31T09:44:42;2.92;;;1.10;;
47866;SDS011;33628;50.806;11.586;2023-08-31T09:47:09;3.15;;;1.08;;
47866;SDS011;33628;50.806;11.586;2023-08-31T09:49:36;2.30;;;1.08;;
47866;SDS011;33628;50.806;11.586;2023-08-31T09:52:05;3.70;;;1.10;;
47866;SDS011;33628;50.806;11.586;2023-08-31T09:54:33;4.35;;;1.30;;
47866;SDS011;33628;50.806;11.586;2023-08-31T09:57:01;1.73;;;1.00;;
47866;SDS011;33628;50.806;11.586;2023-08-31T09:59:28;4.28;;;2.13;;
47866;SDS011;33628;50.806;11.586;2023-08-31T10:01:57;2.65;;;1.25;;
47866;SDS011;33628;50.806;11.586;2023-08-31T10:04:26;2.25;;;1.00;;
47866;SDS011;33628;50.806;11.586;2023-08-31T10:06:56;1.60;;;0.90;;
47866;SDS011;33628;50.806;11.586;2023-08-31T10:09:23;4.75;;;1.15;;
47866;SDS011;33628;50.806;11.586;2023-08-31T10:11:49;2.08;;;0.90;;
47866;SDS011;33628;50.806;11.586;2023-08-31T10:14:16;2.55;;;0.93;;
47866;SDS011;33628;50.806;11.586;2023-08-31T10:16:46;3.25;;;1.10;;
47866;SDS011;33628;50.806;11.586;2023-08-31T10:19:14;4.45;;;1.17;;
47866;SDS011;33628;50.806;11.586;2023-08-31T10:21:41;1.50;;;0.82;;
47866;SDS011;33628;50.806;11.586;2023-08-31T10:24:10;3.03;;;1.13;;
47866;SDS011;33628;50.806;11.586;2023-08-31T10:26:36;2.55;;;1.00;;
47866;SDS011;33628;50.806;11.586;2023-08-31T10:29:03;2.53;;;1.00;;
47866;SDS011;33628;50.806;11.586;2023-08-31T10:31:30;2.38;;;1.00;;
47866;SDS011;33628;50.806;11.586;2023-08-31T10:33:58;4.25;;;1.08;;
47866;SDS011;33628;50.806;11.586;2023-08-31T10:36:36;2.97;;;1.13;;
47866;SDS011;33628;50.806;11.586;2023-08-31T10:39:05;2.53;;;0.90;;
47866;SDS011;33628;50.806;11.586;2023-08-31T10:41:34;2.03;;;1.00;;
47866;SDS011;33628;50.806;11.586;2023-08-31T10:44:01;1.70;;;1.10;;
47866;SDS011;33628;50.806;11.586;2023-08-31T10:46:29;1.58;;;1.13;;
47866;SDS011;33628;50.806;11.586;2023-08-31T10:48:58;1.67;;;1.10;;
47866;SDS011;33628;50.806;11.586;2023-08-31T10:51:26;3.40;;;1.20;;
47866;SDS011;33628;50.806;11.586;2023-08-31T10:54:05;2.17;;;1.00;;
47866;SDS011;33628;50.806;11.586;2023-08-31T10:56:51;2.30;;;1.25;;
47866;SDS011;33628;50.806;11.586;2023-08-31T10:59:21;1.77;;;0.90;;
47866;SDS011;33628;50.806;11.586;2023-08-31T11:01:55;3.45;;;0.90;;
47866;SDS011;33628;50.806;11.586;2023-08-31T11:04:22;4.82;;;0.90;;
47866;SDS011;33628;50.806;11.586;2023-08-31T11:09:42;2.35;;;1.17;;
47866;SDS011;33628;50.806;11.586;2023-08-31T11:12:10;4.13;;;1.02;;
47866;SDS011;33628;50.806;11.586;2023-08-31T11:14:37;1.52;;;0.70;;
47866;SDS011;33628;50.806;11.586;2023-08-31T11:17:04;2.00;;;0.63;;
47866;SDS011;33628;50.806;11.586;2023-08-31T11:19:32;1.25;;;0.70;;
47866;SDS011;33628;50.806;11.586;2023-08-31T11:22:00;1.33;;;0.77;;
47866;SDS011;33628;50.806;11.586;2023-08-31T11:24:28;2.30;;;0.70;;
47866;SDS011;33628;50.806;11.586;2023-08-31T11:26:57;2.75;;;1.10;;
47866;SDS011;33628;50.806;11.586;2023-08-31T11:29:24;1.30;;;0.70;;
47866;SDS011;33628;50.806;11.586;2023-08-31T11:31:51;3.20;;;1.50;;
47866;SDS011;33628;50.806;11.586;2023-08-31T11:34:18;2.20;;;0.90;;
47866;SDS011;33628;50.806;11.586;2023-08-31T11:36:46;1.20;;;0.80;;
47866;SDS011;33628;50.806;11.586;2023-08-31T11:39:13;2.50;;;1.02;;
47866;SDS011;33628;50.806;11.586;2023-08-31T11:41:41;3.38;;;1.00;;
47866;SDS011;33628;50.806;11.586;2023-08-31T11:44:11;1.33;;;0.80;;
47866;SDS011;33628;50.806;11.586;2023-08-31T11:46:43;1.50;;;0.80;;
47866;SDS011;33628;50.806;11.586;2023-08-31T11:49:13;1.75;;;0.88;;
47866;SDS011;33628;50.806;11.586;2023-08-31T11:51:39;1.35;;;0.80;;
47866;SDS011;33628;50.806;11.586;2023-08-31T11:54:06;2.33;;;0.90;;
47866;SDS011;33628;50.806;11.586;2023-08-31T11:56:39;3.47;;;0.80;;
47866;SDS011;33628;50.806;11.586;2023-08-31T11:59:10;1.67;;;0.90;;
47866;SDS011;33628;50.806;11.586;2023-08-31T12:01:40;1.67;;;0.85;;
47866;SDS011;33628;50.806;11.586;2023-08-31T12:04:10;2.70;;;0.75;;
47866;SDS011;33628;50.806;11.586;2023-08-31T12:06:37;3.15;;;0.98;;
47866;SDS011;33628;50.806;11.586;2023-08-31T12:09:04;3.88;;;0.85;;
47866;SDS011;33628;50.806;11.586;2023-08-31T12:11:31;3.65;;;1.13;;
47866;SDS011;33628;50.806;11.586;2023-08-31T12:13:59;2.50;;;0.82;;
47866;SDS011;33628;50.806;11.586;2023-08-31T12:16:33;2.35;;;0.90;;
47866;SDS011;33628;50.806;11.586;2023-08-31T12:19:02;2.67;;;0.65;;
47866;SDS011;33628;50.806;11.586;2023-08-31T12:21:30;3.05;;;0.80;;
47866;SDS011;33628;50.806;11.586;2023-08-31T12:23:57;2.45;;;1.10;;
47866;SDS011;33628;50.806;11.586;2023-08-31T12:26:24;5.50;;;1.02;;
47866;SDS011;33628;50.806;11.586;2023-08-31T12:28:51;4.57;;;1.10;;
47866;SDS011;33628;50.806;11.586;2023-08-31T12:31:17;4.15;;;0.60;;
47866;SDS011;33628;50.806;11.586;2023-08-31T12:33:45;6.18;;;1.10;;
47866;SDS011;33628;50.806;11.586;2023-08-31T12:36:13;2.28;;;1.00;;
47866;SDS011;33628;50.806;11.586;2023-08-31T12:38:40;3.05;;;0.75;;
47866;SDS011;33628;50.806;11.586;2023-08-31T12:41:06;2.35;;;0.80;;
47866;SDS011;33628;50.806;11.586;2023-08-31T12:43:34;2.35;;;1.00;;
47866;SDS011;33628;50.806;11.586;2023-08-31T12:46:01;2.40;;;0.65;;
47866;SDS011;33628;50.806;11.586;2023-08-31T12:48:31;4.57;;;0.90;;
47866;SDS011;33628;50.806;11.586;2023-08-31T12:51:00;1.98;;;0.63;;
47866;SDS011;33628;50.806;11.586;2023-08-31T12:53:26;3.95;;;1.20;;
47866;SDS011;33628;50.806;11.586;2023-08-31T12:55:53;1.23;;;0.60;;
47866;SDS011;33628;50.806;11.586;2023-08-31T12:58:20;1.85;;;0.80;;
47866;SDS011;33628;50.806;11.586;2023-08-31T13:00:48;2.40;;;1.08;;
47866;SDS011;33628;50.806;11.586;2023-08-31T13:03:16;2.13;;;0.50;;
47866;SDS011;33628;50.806;11.586;2023-08-31T13:05:43;3.78;;;1.08;;
47866;SDS011;33628;50.806;11.586;2023-08-31T13:08:11;1.95;;;1.10;;
47866;SDS011;33628;50.806;11.586;2023-08-31T13:10:39;3.95;;;1.55;;
47866;SDS011;33628;50.806;11.586;2023-08-31T13:13:05;2.08;;;0.77;;
47866;SDS011;33628;50.806;11.586;2023-08-31T13:15:32;2.70;;;0.90;;
47866;SDS011;33628;50.806;11.586;2023-08-31T13:17:59;2.88;;;0.77;;
47866;SDS011;33628;50.806;11.586;2023-08-31T13:20:26;4.85;;;1.13;;
47866;SDS011;33628;50.806;11.586;2023-08-31T13:22:53;3.13;;;0.85;;
47866;SDS011;33628;50.806;11.586;2023-08-31T13:25:21;2.50;;;0.95;;
47866;SDS011;33628;50.806;11.586;2023-08-31T13:27:48;0.98;;;0.68;;
47866;SDS011;33628;50.806;11.586;2023-08-31T13:30:14;1.63;;;0.70;;
47866;SDS011;33628;50.806;11.586;2023-08-31T13:32:42;2.28;;;0.80;;
47866;SDS011;33628;50.806;11.586;2023-08-31T13:35:09;4.00;;;0.82;;
47866;SDS011;33628;50.806;11.586;2023-08-31T13:37:36;3.63;;;1.60;;
47866;SDS011;33628;50.806;11.586;2023-08-31T13:40:03;7.15;;;1.00;;
47866;SDS011;33628;50.806;11.586;2023-08-31T13:42:36;1.58;;;0.68;;
47866;SDS011;33628;50.806;11.586;2023-08-31T13:45:08;4.55;;;0.80;;
47866;SDS011;33628;50.806;11.586;2023-08-31T13:47:35;2.42;;;0.75;;
47866;SDS011;33628;50.806;11.586;2023-08-31T13:50:05;2.25;;;0.90;;
47866;SDS011;33628;50.806;11.586;2023-08-31T13:52:34;2.28;;;0.75;;
47866;SDS011;33628;50.806;11.586;2023-08-31T13:55:01;1.27;;;0.70;;
47866;SDS011;33628;50.806;11.586;2023-08-31T13:57:29;2.78;;;1.00;;
47866;SDS011;33628;50.806;11.586;2023-08-31T13:59:59;5.38;;;1.20;;
47866;SDS011;33628;50.806;11.586;2023-08-31T14:02:25;1.95;;;0.77;;
47866;SDS011;33628;50.806;11.586;2023-08-31T14:04:52;3.08;;;0.98;;
47866;SDS011;33628;50.806;11.586;2023-08-31T14:07:20;1.67;;;1.00;;
47866;SDS011;33628;50.806;11.586;2023-08-31T14:09:47;2.60;;;1.10;;
47866;SDS011;33628;50.806;11.586;2023-08-31T14:12:13;2.63;;;1.10;;
47866;SDS011;33628;50.806;11.586;2023-08-31T14:14:40;1.52;;;0.85;;
47866;SDS011;33628;50.806;11.586;2023-08-31T14:17:09;1.63;;;0.80;;
47866;SDS011;33628;50.806;11.586;2023-08-31T14:19:36;3.47;;;1.02;;
47866;SDS011;33628;50.806;11.586;2023-08-31T14:22:03;1.45;;;0.90;;
47866;SDS011;33628;50.806;11.586;2023-08-31T14:24:33;2.83;;;1.00;;
47866;SDS011;33628;50.806;11.586;2023-08-31T14:27:00;3.72;;;1.02;;
47866;SDS011;33628;50.806;11.586;2023-08-31T14:29:27;1.80;;;0.85;;
47866;SDS011;33628;50.806;11.586;2023-08-31T14:31:56;3.10;;;1.05;;
47866;SDS011;33628;50.806;11.586;2023-08-31T14:34:27;2.65;;;0.95;;
47866;SDS011;33628;50.806;11.586;2023-08-31T14:36:53;1.83;;;0.90;;
47866;SDS011;33628;50.806;11.586;2023-08-31T14:39:23;2.65;;;0.93;;